Date,TemperatureHighF,TemperatureAvgF,TemperatureLowF,DewpointHighF,DewpointAvgF,DewpointLowF,HumidityHigh,HumidityAvg,HumidityLow,PressureMaxIn,PressureMinIn,WindSpeedMaxMPH,WindSpeedAvgMPH,GustSpeedMaxMPH,PrecipitationSumIn
2013-3-1,31.2,28.5,26.6,28.0,23.6,21.0,87,82,74,30.07,29.91,18,8,0,0.00
2013-3-2,28.1,26.6,23.9,25.0,23.4,21.0,92,88,81,30.04,30.00,15,7,0,0.00
2013-3-3,28.0,25.0,20.8,22.0,19.6,17.0,92,80,68,30.05,29.99,14,6,0,0.00
2013-3-4,32.0,26.2,20.8,24.0,21.6,19.0,93,83,67,30.14,30.05,6,2,0,0.00
2013-3-5,30.8,27.8,24.6,28.0,24.8,22.0,94,88,82,30.10,29.71,21,6,0,0.00
2013-3-6,37.1,33.3,30.6,32.0,29.8,28.0,95,87,78,30.18,29.71,20,6,0,0.00
2013-3-7,37.7,33.4,31.8,33.0,30.9,27.0,94,90,81,30.37,30.16,10,3,0,0.00
2013-3-8,38.4,31.7,25.8,31.0,27.2,24.0,95,84,63,30.47,30.36,5,1,0,0.00
2013-3-9,42.1,34.5,26.6,37.0,30.5,26.0,96,86,67,30.42,30.03,7,2,0,0.00
2013-3-10,66.7,55.5,41.5,45.0,38.3,33.0,81,54,36,30.02,29.77,15,4,0,0.00
2013-3-11,60.3,50.6,38.5,48.0,42.8,34.0,88,76,44,29.77,29.55,21,8,0,0.61
2013-3-12,38.2,35.3,33.6,34.0,31.0,28.0,89,84,76,29.93,29.72,23,11,0,0.00
2013-3-13,34.5,31.3,28.2,30.0,24.8,20.0,93,77,66,30.18,29.86,24,14,0,0.00
2013-3-14,39.6,31.9,25.9,29.0,23.1,20.0,84,71,51,30.25,30.09,18,8,0,0.00
2013-3-15,39.5,35.4,32.6,35.0,31.5,27.0,96,85,76,30.09,29.82,16,5,0,0.13
2013-3-16,34.8,31.7,29.7,34.0,30.4,28.0,97,95,88,30.01,29.68,14,4,0,0.04
2013-3-17,32.0,29.5,28.0,30.0,23.5,21.0,92,78,71,30.23,30.01,17,6,0,0.00
2013-3-18,41.0,34.0,29.0,41.0,31.2,23.0,99,90,76,30.14,29.53,18,6,0,0.06
2013-3-19,35.7,30.2,25.8,33.0,23.1,19.0,91,75,64,29.95,29.66,29,18,0,0.00
2013-3-20,31.3,27.8,22.6,23.0,19.2,14.0,79,70,61,29.95,29.88,21,13,0,0.00
2013-3-21,31.6,25.2,18.7,26.0,19.9,13.0,89,80,66,29.93,29.86,19,13,0,0.00
2013-3-22,40.2,31.1,27.5,29.0,22.7,20.0,86,72,48,30.00,29.92,19,7,0,0.00
2013-3-23,39.6,32.8,28.0,29.0,26.7,23.0,90,79,60,30.07,29.99,11,3,0,0.00
2013-3-24,34.6,31.6,28.4,28.0,26.5,24.0,88,81,70,30.01,29.52,23,6,0,0.00
2013-3-25,33.5,31.9,30.6,33.0,31.1,28.0,99,97,80,29.85,29.44,16,8,0,0.06
2013-3-26,39.6,35.3,33.5,34.0,32.4,31.0,98,89,78,30.09,29.85,14,6,0,0.00
2013-3-27,42.6,37.3,33.3,33.0,31.5,29.0,94,80,67,30.17,30.08,18,10,0,0.01
2013-3-28,46.1,39.1,32.5,35.0,30.5,27.0,83,72,53,30.25,30.17,19,6,0,0.00
2013-3-29,49.3,40.7,33.6,34.0,28.9,21.0,88,66,33,30.27,30.18,10,3,0,0.00
2013-3-30,55.6,42.3,31.8,34.0,29.9,26.0,87,64,34,30.20,29.91,9,2,0,0.00
2013-3-31,53.1,47.0,43.9,45.0,36.9,29.0,90,68,53,29.91,29.60,10,4,0,0.00